< < Back
Terminal Aerodrome Forecast


Current Version              Previous Versions:   1  2  3  4  5  6  7  8  9  

Terminal Aerodrome Forecast

273
FTUS42 KCHS 231120
TAFCHS
TAF
KCHS 231120Z 2312/2412 23005KT P6SM SCT030 BKN250
     FM231900 19009KT P6SM SCT040
     FM240200 VRB04KT P6SM SKC=

Latest METAR

717
SAUS80 KWBC 240200 CCA
MTRCHS
METAR KCHS 240156Z 20005KT 10SM FEW250 28/24 A3000 RMK AO2 SLP158
T02780239 $


USA.gov is the U.S. government's official web portal to all federal, state and local government web resources and services.